Time;durP1;ratioP1;P1;durP2;ratioP2;P2;SDS_P1;SDS_P2;PMS_P1;PMS_P2;Temp;Humidity;BMP_temperature;BMP_pressure;BME280_temperature;BME280_humidity;BME280_pressure;Samples;Min_cycle;Max_cycle;Signal;HPM_P1;HPM_P2
2022/01/17 00:00:38;;;;;;;36.58;27.27;;;3.30;99.90;;;;;;4995348;28;20045;-78
2022/01/17 00:03:05;;;;;;;39.70;26.70;;;3.30;99.90;;;;;;4995982;28;20487;-78
2022/01/17 00:05:32;;;;;;;36.38;29.42;;;3.30;99.90;;;;;;4995451;28;20038;-79
2022/01/17 00:07:59;;;;;;;37.63;28.35;;;3.20;99.90;;;;;;4995561;28;20038;-79
2022/01/17 00:10:25;;;;;;;37.78;29.95;;;3.20;99.90;;;;;;4995738;28;20038;-78
2022/01/17 00:12:54;;;;;;;35.72;27.83;;;3.20;99.90;;;;;;4995197;28;20053;-78
2022/01/17 00:15:25;;;;;;;33.67;28.98;;;3.20;99.90;;;;;;4995794;28;20031;-78
2022/01/17 00:18:08;;;;;;;44.65;30.10;;;3.20;99.90;;;;;;4993849;28;20050;-78
2022/01/17 00:20:34;;;;;;;34.80;29.20;;;3.20;99.90;;;;;;4995519;28;20027;-79
2022/01/17 00:23:03;;;;;;;34.45;29.55;;;3.20;99.90;;;;;;4996262;28;20089;-79
2022/01/17 00:25:30;;;;;;;33.80;26.00;;;3.20;99.90;;;;;;4995042;28;20046;-82
2022/01/17 00:27:56;;;;;;;32.25;26.20;;;3.30;99.90;;;;;;4995680;28;20035;-78
2022/01/17 00:30:22;;;;;;;33.33;26.45;;;3.30;99.90;;;;;;4995791;28;20045;-78
2022/01/17 00:32:48;;;;;;;29.40;24.42;;;3.20;99.90;;;;;;4994251;28;20125;-77
2022/01/17 00:35:15;;;;;;;30.98;23.75;;;3.20;99.90;;;;;;4995639;28;20042;-78
2022/01/17 00:37:42;;;;;;;28.23;23.80;;;3.20;99.90;;;;;;4995589;28;20030;-78
2022/01/17 00:40:09;;;;;;;32.15;23.15;;;3.20;99.90;;;;;;4996132;28;20114;-78
2022/01/17 00:42:35;;;;;;;32.35;24.95;;;3.20;99.90;;;;;;4995071;28;20035;-79
2022/01/17 00:45:04;;;;;;;32.17;24.58;;;3.20;99.90;;;;;;4995848;28;20054;-78
2022/01/17 00:47:30;;;;;;;26.95;23.15;;;3.20;99.90;;;;;;4996687;28;20042;-82
2022/01/17 00:49:56;;;;;;;28.83;23.25;;;3.20;99.90;;;;;;4995689;28;20027;-78
2022/01/17 00:52:22;;;;;;;34.22;24.42;;;3.20;99.90;;;;;;4993950;28;20050;-79
2022/01/17 00:54:48;;;;;;;30.45;24.90;;;3.20;99.90;;;;;;4994467;28;20042;-78
2022/01/17 00:57:15;;;;;;;39.25;26.42;;;3.20;99.90;;;;;;4995018;28;20035;-78
2022/01/17 00:59:41;;;;;;;29.65;24.77;;;3.10;99.90;;;;;;4993677;28;20030;-78
2022/01/17 01:02:07;;;;;;;27.25;24.15;;;3.10;99.90;;;;;;4994944;28;20057;-78
2022/01/17 01:04:33;;;;;;;26.40;23.05;;;3.20;99.90;;;;;;4994027;28;20045;-84
2022/01/17 01:07:00;;;;;;;37.30;26.58;;;3.10;99.90;;;;;;4995923;28;20031;-78
2022/01/17 01:09:31;;;;;;;34.55;25.17;;;3.10;99.90;;;;;;4997667;28;20042;-78
2022/01/17 01:11:57;;;;;;;35.80;25.13;;;3.10;99.90;;;;;;5005853;28;20380;-78
2022/01/17 01:14:24;;;;;;;32.78;25.83;;;3.10;99.90;;;;;;5007404;28;20035;-77
2022/01/17 01:16:53;;;;;;;38.33;25.42;;;3.10;99.90;;;;;;4997552;28;20050;-78
2022/01/17 01:19:27;;;;;;;36.03;25.30;;;3.10;99.90;;;;;;4994493;28;20042;-78
2022/01/17 01:27:44;;;;;;;36.97;25.88;;;3.20;99.90;;;;;;4994419;28;20464;-78
2022/01/17 01:30:13;;;;;;;28.42;22.08;;;3.20;99.90;;;;;;4992552;28;20042;-78
2022/01/17 01:32:48;;;;;;;28.30;22.88;;;3.20;99.90;;;;;;4993294;28;20061;-79
2022/01/17 01:35:18;;;;;;;33.67;24.40;;;3.20;99.90;;;;;;4993717;28;20050;-78
2022/01/17 01:37:45;;;;;;;37.97;23.88;;;3.20;99.90;;;;;;4992607;28;20464;-78
2022/01/17 01:40:12;;;;;;;28.80;23.02;;;3.20;99.90;;;;;;4992288;28;20042;-78
2022/01/17 01:42:39;;;;;;;28.83;21.75;;;3.20;99.90;;;;;;4993334;28;20030;-78
2022/01/17 01:45:07;;;;;;;28.35;22.63;;;3.20;99.90;;;;;;4993786;28;20045;-78
2022/01/17 01:47:34;;;;;;;25.50;21.50;;;3.20;99.90;;;;;;4993653;28;20034;-83
2022/01/17 01:50:00;;;;;;;31.33;22.40;;;3.20;99.90;;;;;;4993469;28;20046;-77
2022/01/17 01:52:27;;;;;;;27.98;23.85;;;3.20;99.90;;;;;;4993861;28;20117;-78
2022/01/17 01:54:53;;;;;;;24.60;21.98;;;3.20;99.90;;;;;;4993390;28;20042;-77
2022/01/17 01:57:19;;;;;;;25.55;21.75;;;3.20;99.90;;;;;;4994224;28;20387;-77
2022/01/17 01:59:46;;;;;;;26.85;21.08;;;3.20;99.90;;;;;;4993419;28;20030;-78
2022/01/17 02:02:13;;;;;;;26.20;21.02;;;3.20;99.90;;;;;;4993587;28;20411;-78
2022/01/17 02:04:39;;;;;;;26.08;21.85;;;3.20;99.90;;;;;;4992788;28;20482;-78
2022/01/17 02:07:06;;;;;;;31.67;22.55;;;3.30;99.90;;;;;;4993661;28;20041;-78
2022/01/17 02:09:33;;;;;;;23.40;20.88;;;3.30;99.90;;;;;;4993726;28;20057;-78
2022/01/17 02:11:59;;;;;;;25.55;21.60;;;3.30;99.90;;;;;;4993467;28;20034;-78
2022/01/17 02:14:25;;;;;;;31.63;21.75;;;3.30;99.90;;;;;;4993770;28;20034;-78
2022/01/17 02:16:51;;;;;;;26.30;21.60;;;3.30;99.90;;;;;;4992813;28;20030;-78
2022/01/17 02:19:21;;;;;;;29.30;22.17;;;3.30;99.90;;;;;;4993335;28;20034;-78
2022/01/17 02:21:48;;;;;;;32.92;21.67;;;3.30;99.90;;;;;;4994252;28;20053;-78
2022/01/17 02:24:18;;;;;;;30.23;21.75;;;3.30;99.90;;;;;;4992274;28;20053;-78
2022/01/17 02:26:47;;;;;;;25.57;22.13;;;3.30;99.90;;;;;;4993904;28;20046;-77
2022/01/17 02:29:13;;;;;;;31.17;24.58;;;3.20;99.90;;;;;;4994065;28;20262;-78
2022/01/17 02:31:43;;;;;;;29.17;23.88;;;3.20;99.90;;;;;;4993174;28;20034;-79
2022/01/17 02:34:10;;;;;;;29.67;23.40;;;3.20;99.90;;;;;;4993305;28;20027;-77
2022/01/17 02:36:36;;;;;;;28.55;24.48;;;3.10;99.90;;;;;;4993021;28;20395;-83
2022/01/17 02:39:03;;;;;;;32.08;23.85;;;3.10;99.90;;;;;;4993354;28;20471;-77
2022/01/17 02:41:34;;;;;;;33.53;24.80;;;3.10;99.90;;;;;;4993565;28;20035;-77
2022/01/17 02:44:02;;;;;;;36.08;24.77;;;3.10;99.90;;;;;;4993245;28;20034;-77
2022/01/17 02:46:29;;;;;;;30.50;25.17;;;3.00;99.90;;;;;;4994004;28;20050;-77
2022/01/17 02:48:58;;;;;;;31.08;27.40;;;3.00;99.90;;;;;;4992880;28;20041;-77
2022/01/17 02:51:24;;;;;;;79.72;59.20;;;3.00;99.90;;;;;;4992117;28;20034;-77
2022/01/17 02:53:51;;;;;;;93.15;69.05;;;3.00;99.90;;;;;;4993096;28;20413;-78
2022/01/17 02:56:17;;;;;;;153.68;128.27;;;3.00;99.90;;;;;;4991936;28;20046;-78
2022/01/17 02:58:44;;;;;;;58.63;49.33;;;3.00;99.90;;;;;;4992715;28;20403;-78
2022/01/17 03:01:14;;;;;;;29.10;25.98;;;3.00;99.90;;;;;;4993726;28;20039;-77
2022/01/17 03:03:42;;;;;;;37.25;25.80;;;3.00;99.90;;;;;;4992728;28;20484;-84
2022/01/17 03:06:09;;;;;;;32.10;27.52;;;3.00;99.90;;;;;;4992891;28;20041;-77
2022/01/17 03:08:37;;;;;;;78.65;43.72;;;3.00;99.90;;;;;;4991630;28;20057;-77
2022/01/17 03:11:05;;;;;;;36.33;29.08;;;3.00;99.90;;;;;;4993083;28;20054;-79
2022/01/17 03:13:35;;;;;;;32.90;24.70;;;3.10;99.90;;;;;;4993202;28;20098;-78
2022/01/17 03:16:07;;;;;;;28.20;23.92;;;3.20;99.90;;;;;;4993404;28;20034;-78
2022/01/17 03:18:41;;;;;;;32.53;28.60;;;3.20;99.90;;;;;;4992930;28;20050;-78
2022/01/17 03:21:10;;;;;;;40.85;33.47;;;3.20;99.90;;;;;;4993140;28;20031;-78
2022/01/17 03:23:38;;;;;;;29.88;22.42;;;3.20;99.90;;;;;;4992918;28;20055;-78
2022/01/17 03:26:05;;;;;;;38.13;29.92;;;3.20;99.90;;;;;;4992553;28;20065;-78
2022/01/17 03:28:32;;;;;;;31.58;22.77;;;3.20;99.90;;;;;;4993003;28;20383;-77
2022/01/17 03:31:01;;;;;;;34.35;30.73;;;3.20;99.90;;;;;;4992539;28;20034;-78
2022/01/17 03:33:28;;;;;;;83.53;62.67;;;3.20;99.90;;;;;;4992497;28;20030;-77
2022/01/17 03:35:55;;;;;;;39.17;28.98;;;3.20;99.90;;;;;;4992378;28;20049;-76
2022/01/17 03:38:26;;;;;;;66.65;53.28;;;3.20;99.90;;;;;;4992598;28;20039;-77
2022/01/17 03:40:52;;;;;;;;;;;3.20;99.90;;;;;;4992519;28;20041;-77
2022/01/17 03:43:20;;;;;;;39.28;33.97;;;3.20;99.90;;;;;;4992636;28;19920;-77
2022/01/17 03:45:46;;;;;;;30.67;26.15;;;3.20;99.90;;;;;;4992219;28;20034;-76
2022/01/17 03:48:13;;;;;;;34.13;26.50;;;3.20;99.90;;;;;;4993087;28;20034;-77
2022/01/17 03:50:40;;;;;;;42.95;25.77;;;3.20;99.90;;;;;;4992220;28;20030;-82
2022/01/17 03:53:06;;;;;;;40.88;33.60;;;3.10;99.90;;;;;;4992289;28;20038;-77
2022/01/17 03:55:34;;;;;;;36.58;30.50;;;3.10;99.90;;;;;;4992870;28;20038;-77
2022/01/17 03:58:06;;;;;;;41.38;31.63;;;3.10;99.90;;;;;;4992406;28;20042;-77
2022/01/17 04:00:43;;;;;;;39.00;31.90;;;3.00;99.90;;;;;;4994706;28;20480;-77
2022/01/17 04:03:10;;;;;;;41.33;34.22;;;3.10;99.90;;;;;;4995435;28;20038;-78
2022/01/17 04:05:37;;;;;;;32.08;28.77;;;3.00;99.90;;;;;;4995701;28;20050;-77
2022/01/17 04:08:03;;;;;;;37.50;26.70;;;3.00;99.90;;;;;;4995436;28;20031;-78
2022/01/17 04:10:29;;;;;;;33.13;29.77;;;3.00;99.90;;;;;;4996038;28;20033;-78
2022/01/17 04:13:01;;;;;;;39.47;35.38;;;3.00;99.90;;;;;;4995332;28;20479;-78
2022/01/17 04:15:28;;;;;;;43.28;31.52;;;3.00;99.90;;;;;;4995841;28;20034;-78
2022/01/17 04:17:55;;;;;;;42.28;25.48;;;3.00;99.90;;;;;;4994644;28;20050;-78
2022/01/17 04:20:29;;;;;;;29.48;22.23;;;3.00;99.90;;;;;;4995514;28;20045;-78
2022/01/17 04:22:57;;;;;;;29.27;23.38;;;3.00;99.90;;;;;;4995176;28;20038;-78
2022/01/17 04:25:26;;;;;;;36.53;24.48;;;3.00;99.90;;;;;;4995277;28;20058;-77
2022/01/17 04:27:53;;;;;;;32.97;23.38;;;3.00;99.90;;;;;;4994840;28;20039;-77
2022/01/17 04:30:20;;;;;;;36.70;25.33;;;3.00;99.90;;;;;;4995482;28;20031;-77
2022/01/17 04:32:47;;;;;;;34.95;23.98;;;3.10;99.90;;;;;;4994867;28;20035;-78
2022/01/17 04:35:20;;;;;;;37.33;21.52;;;3.10;99.90;;;;;;4994265;28;20503;-77
2022/01/17 04:37:51;;;;;;;30.95;20.35;;;3.10;99.90;;;;;;4995239;28;20030;-78
2022/01/17 04:40:18;;;;;;;25.63;20.00;;;3.10;99.90;;;;;;4995354;28;20026;-77
2022/01/17 04:42:47;;;;;;;23.38;18.13;;;3.20;99.90;;;;;;4994941;28;20487;-84
2022/01/17 04:45:16;;;;;;;25.00;19.23;;;3.20;99.90;;;;;;4995238;28;20054;-77
2022/01/17 04:47:47;;;;;;;25.00;18.58;;;3.20;99.90;;;;;;4995081;28;20488;-77
2022/01/17 04:50:16;;;;;;;21.52;15.90;;;3.20;99.90;;;;;;4994942;28;20034;-77
2022/01/17 04:52:42;;;;;;;23.77;17.63;;;3.30;99.90;;;;;;4994722;28;20034;-77
2022/01/17 04:55:11;;;;;;;22.52;18.25;;;3.30;99.90;;;;;;4994251;28;20482;-76
2022/01/17 04:57:38;;;;;;;27.25;20.65;;;3.20;99.90;;;;;;4995088;28;20037;-76
2022/01/17 05:00:07;;;;;;;23.15;20.23;;;3.20;99.90;;;;;;4994902;28;20034;-76
2022/01/17 05:02:33;;;;;;;26.95;19.83;;;3.20;99.90;;;;;;4995204;28;20383;-77
2022/01/17 05:05:02;;;;;;;22.00;19.40;;;3.10;99.90;;;;;;4993477;28;20046;-77
2022/01/17 05:07:29;;;;;;;29.10;19.33;;;3.10;99.90;;;;;;4994634;28;20058;-76
2022/01/17 05:09:55;;;;;;;26.67;20.20;;;3.10;99.90;;;;;;4993992;28;20360;-77
2022/01/17 05:12:22;;;;;;;23.38;17.58;;;3.10;99.90;;;;;;4994996;28;20038;-77
2022/01/17 05:14:50;;;;;;;27.00;18.90;;;3.10;99.90;;;;;;4993462;28;20042;-81
2022/01/17 05:19:57;;;;;;;25.02;17.40;;;3.20;99.90;;;;;;4993500;28;20039;-79
2022/01/17 05:22:31;;;;;;;26.45;19.50;;;3.20;99.90;;;;;;4994925;28;20384;-78
2022/01/17 05:24:59;;;;;;;25.30;18.73;;;3.20;99.90;;;;;;4993152;28;20050;-79
2022/01/17 05:27:25;;;;;;;21.80;16.75;;;3.20;99.90;;;;;;4994111;28;20049;-79
2022/01/17 05:29:51;;;;;;;17.27;15.48;;;3.20;99.90;;;;;;4993398;28;20030;-79
2022/01/17 05:32:18;;;;;;;23.38;15.77;;;3.30;99.90;;;;;;4995431;28;20038;-78
2022/01/17 05:34:44;;;;;;;16.52;14.38;;;3.30;99.90;;;;;;4997373;28;20030;-79
2022/01/17 05:37:13;;;;;;;21.80;15.02;;;3.30;99.90;;;;;;4997521;28;20034;-79
2022/01/17 05:39:42;;;;;;;19.02;15.90;;;3.30;99.90;;;;;;5000057;28;20026;-78
2022/01/17 05:42:09;;;;;;;18.88;15.25;;;3.30;99.90;;;;;;4996379;28;20034;-78
2022/01/17 05:44:36;;;;;;;20.67;16.75;;;3.30;99.90;;;;;;4993688;28;20038;-79
2022/01/17 05:47:02;;;;;;;21.17;16.98;;;3.30;99.90;;;;;;5006097;28;20070;-79
2022/01/17 05:49:29;;;;;;;22.70;17.83;;;3.30;99.90;;;;;;5013580;28;20038;-80
2022/01/17 05:51:55;;;;;;;26.63;18.65;;;3.20;99.90;;;;;;5012540;28;20034;-80
2022/01/17 05:54:21;;;;;;;19.40;17.15;;;3.20;99.90;;;;;;5013113;28;20471;-80
2022/01/17 05:56:47;;;;;;;22.95;17.35;;;3.20;99.90;;;;;;5013095;28;20038;-82
2022/01/17 05:59:14;;;;;;;23.60;18.83;;;3.20;99.90;;;;;;5011686;28;20037;-80
2022/01/17 06:01:42;;;;;;;23.75;18.73;;;3.20;99.90;;;;;;5013127;28;20034;-80
2022/01/17 06:04:09;;;;;;;22.63;18.13;;;3.10;99.90;;;;;;5012483;28;20289;-79
2022/01/17 06:06:35;;;;;;;19.77;17.65;;;3.20;99.90;;;;;;5012756;28;20037;-80
2022/01/17 06:09:02;;;;;;;20.55;18.38;;;3.20;99.90;;;;;;5012206;28;20037;-80
2022/01/17 06:11:28;;;;;;;25.70;19.23;;;3.20;99.90;;;;;;5012991;28;20041;-80
2022/01/17 06:13:55;;;;;;;29.38;19.70;;;3.20;99.90;;;;;;4997063;28;20034;-80
2022/01/17 06:16:21;;;;;;;20.58;17.45;;;3.20;99.90;;;;;;4993430;28;20045;-79
2022/01/17 06:18:47;;;;;;;19.17;16.60;;;3.20;99.90;;;;;;5007284;28;20049;-80
2022/01/17 06:21:13;;;;;;;35.70;18.00;;;3.20;99.90;;;;;;5012144;28;20034;-79
2022/01/17 06:23:39;;;;;;;26.33;20.48;;;3.20;99.90;;;;;;5001423;28;20375;-80
2022/01/17 06:26:05;;;;;;;28.58;16.33;;;3.20;99.90;;;;;;5001356;28;20034;-80
2022/01/17 06:28:32;;;;;;;20.27;17.42;;;3.20;99.90;;;;;;5004081;28;20033;-80
2022/01/17 06:30:58;;;;;;;24.83;17.73;;;3.20;99.90;;;;;;4992454;28;20030;-80
2022/01/17 06:33:24;;;;;;;27.45;18.67;;;3.20;99.90;;;;;;4992594;28;20037;-80
2022/01/17 06:35:51;;;;;;;17.55;15.63;;;3.20;99.90;;;;;;4992589;28;20038;-79
2022/01/17 06:38:17;;;;;;;21.75;18.38;;;3.10;99.90;;;;;;4992864;28;20038;-80
2022/01/17 06:40:43;;;;;;;21.40;16.63;;;3.10;99.90;;;;;;4993158;28;20043;-80
2022/01/17 06:43:11;;;;;;;22.85;17.48;;;3.10;99.90;;;;;;4992093;28;20026;-80
2022/01/17 06:45:38;;;;;;;24.20;17.42;;;3.10;99.90;;;;;;4994217;28;20380;-79
2022/01/17 06:48:06;;;;;;;23.45;19.48;;;3.10;99.90;;;;;;4992715;28;20042;-81
2022/01/17 06:50:33;;;;;;;23.67;16.73;;;3.20;99.90;;;;;;4993108;28;20030;-81
2022/01/17 06:52:59;;;;;;;20.05;16.05;;;3.20;99.90;;;;;;4991978;28;20054;-82
2022/01/17 06:55:26;;;;;;;30.55;23.25;;;3.10;99.90;;;;;;4992856;28;20038;-81
2022/01/17 06:57:52;;;;;;;32.97;23.95;;;3.10;99.90;;;;;;4991542;28;20046;-83
2022/01/17 07:00:18;;;;;;;25.80;19.42;;;3.10;99.90;;;;;;4992675;28;20034;-81
2022/01/17 07:02:45;;;;;;;22.40;17.85;;;3.00;99.90;;;;;;4992442;28;20053;-81
2022/01/17 07:05:11;;;;;;;18.00;16.00;;;3.00;99.90;;;;;;4991921;28;20034;-82
2022/01/17 07:07:37;;;;;;;32.28;20.42;;;3.00;99.90;;;;;;4992469;28;20495;-81
2022/01/17 07:10:05;;;;;;;25.17;18.80;;;3.10;99.90;;;;;;4992230;28;20471;-84
2022/01/17 07:12:31;;;;;;;27.08;19.33;;;3.00;99.90;;;;;;4992860;28;20038;-83
2022/01/17 07:14:57;;;;;;;32.75;23.27;;;3.00;99.90;;;;;;4991789;28;20388;-83
2022/01/17 07:17:23;;;;;;;22.25;18.77;;;3.00;99.90;;;;;;4992897;28;20030;-83
2022/01/17 07:19:50;;;;;;;23.13;20.63;;;3.10;99.90;;;;;;4997918;28;20026;-83
2022/01/17 07:22:16;;;;;;;25.90;19.73;;;3.10;99.90;;;;;;5010924;28;20038;-83
2022/01/17 07:24:44;;;;;;;23.25;18.38;;;3.10;99.90;;;;;;5021552;28;20046;-83
2022/01/17 07:27:11;;;;;;;25.83;19.73;;;3.10;99.90;;;;;;5009196;28;20033;-83
2022/01/17 07:29:38;;;;;;;31.33;27.90;;;3.10;99.90;;;;;;5012150;28;20038;-83
2022/01/17 07:32:05;;;;;;;27.13;21.98;;;3.10;99.90;;;;;;5010805;28;20034;-83
2022/01/17 07:34:31;;;;;;;33.92;21.33;;;3.10;99.90;;;;;;5014774;28;20030;-83
2022/01/17 07:36:59;;;;;;;27.30;20.77;;;3.10;99.90;;;;;;5015553;28;20387;-83
2022/01/17 07:39:27;;;;;;;26.63;19.08;;;3.20;99.90;;;;;;5016223;28;20030;-84
2022/01/17 07:41:53;;;;;;;28.70;19.95;;;3.10;99.90;;;;;;5015721;28;20475;-80
2022/01/17 07:44:24;;;;;;;26.98;20.75;;;3.10;99.90;;;;;;5014366;28;20051;-82
2022/01/17 07:47:00;;;;;;;38.45;28.23;;;3.20;99.90;;;;;;5015624;28;20053;-82
2022/01/17 07:49:27;;;;;;;39.33;27.45;;;3.20;99.90;;;;;;5015964;28;20034;-83
2022/01/17 07:52:05;;;;;;;25.23;18.67;;;3.30;99.90;;;;;;5015961;28;20030;-81
2022/01/17 07:54:35;;;;;;;34.67;22.85;;;3.30;99.90;;;;;;5016381;28;20034;-83
2022/01/17 07:57:02;;;;;;;21.27;17.05;;;3.30;99.90;;;;;;5016237;28;20034;-82
2022/01/17 07:59:28;;;;;;;25.30;17.52;;;3.30;99.90;;;;;;5015710;28;20482;-83
2022/01/17 08:01:55;;;;;;;26.17;17.92;;;3.40;99.90;;;;;;5015510;28;20026;-81
2022/01/17 08:04:21;;;;;;;37.20;20.00;;;3.40;99.90;;;;;;5015795;28;20029;-81
2022/01/17 08:06:49;;;;;;;24.75;17.55;;;3.40;99.90;;;;;;5015493;28;20038;-83
2022/01/17 08:09:20;;;;;;;21.33;16.00;;;3.40;99.90;;;;;;5014849;28;20364;-82
2022/01/17 08:11:46;;;;;;;24.83;15.93;;;3.50;99.90;;;;;;5016121;28;20383;-83
2022/01/17 08:14:13;;;;;;;18.70;14.82;;;3.50;99.90;;;;;;5012076;28;20026;-82
2022/01/17 08:16:39;;;;;;;19.75;16.27;;;3.60;99.90;;;;;;5015165;28;20064;-82
2022/01/17 08:19:05;;;;;;;19.10;14.18;;;3.60;99.90;;;;;;5013608;28;20030;-83
2022/01/17 08:21:31;;;;;;;19.70;13.70;;;3.70;99.90;;;;;;5015125;28;20025;-83
2022/01/17 08:23:59;;;;;;;22.02;15.38;;;3.70;99.90;;;;;;5014623;28;20057;-83
2022/01/17 08:26:26;;;;;;;18.65;15.93;;;3.70;99.90;;;;;;5015139;28;20065;-82
2022/01/17 08:28:52;;;;;;;19.75;16.85;;;3.70;99.90;;;;;;5014280;28;20360;-83
2022/01/17 08:31:19;;;;;;;19.63;15.52;;;3.70;99.90;;;;;;5013925;28;20042;-83
2022/01/17 08:33:46;;;;;;;20.20;16.27;;;3.60;99.90;;;;;;5015139;28;20156;-81
2022/01/17 08:36:14;;;;;;;18.98;16.27;;;3.60;99.90;;;;;;5014717;28;20037;-82
2022/01/17 08:38:41;;;;;;;16.92;14.98;;;3.60;99.90;;;;;;5015516;28;20033;-82
2022/01/17 08:41:07;;;;;;;21.33;15.15;;;3.60;99.90;;;;;;5015067;28;20041;-82
2022/01/17 08:43:33;;;;;;;21.10;15.73;;;3.60;99.90;;;;;;5019965;28;20482;-81
2022/01/17 08:46:00;;;;;;;16.30;12.35;;;3.60;99.90;;;;;;5015381;28;20033;-83
2022/01/17 08:48:26;;;;;;;18.67;14.38;;;3.70;99.90;;;;;;5013625;28;20406;-81
2022/01/17 08:50:52;;;;;;;18.85;14.95;;;3.70;99.90;;;;;;5015057;28;20041;-83
2022/01/17 08:53:19;;;;;;;23.00;14.77;;;3.70;99.90;;;;;;5013067;28;20471;-82
2022/01/17 08:55:46;;;;;;;32.17;24.55;;;3.70;99.90;;;;;;5013347;28;20475;-82
2022/01/17 08:58:14;;;;;;;23.08;13.90;;;3.70;99.90;;;;;;5014199;28;20495;-81
2022/01/17 09:00:41;;;;;;;18.67;16.48;;;3.80;99.90;;;;;;5014815;28;20110;-81
2022/01/17 09:03:08;;;;;;;22.20;14.90;;;3.80;99.90;;;;;;5014144;28;20030;-81
2022/01/17 09:05:34;;;;;;;15.90;14.20;;;3.90;99.90;;;;;;5014763;28;20033;-82
2022/01/17 09:08:02;;;;;;;18.60;13.82;;;3.90;99.90;;;;;;5013991;28;20030;-81
2022/01/17 09:10:29;;;;;;;23.23;14.30;;;4.00;99.90;;;;;;5014600;28;20372;-81
2022/01/17 09:12:56;;;;;;;22.65;15.15;;;4.00;99.90;;;;;;5014599;28;20037;-82
2022/01/17 09:15:24;;;;;;;18.70;13.18;;;4.10;99.90;;;;;;5014122;28;20502;-82
2022/01/17 09:17:50;;;;;;;18.02;13.73;;;4.10;99.90;;;;;;5014252;28;20064;-82
2022/01/17 09:20:17;;;;;;;15.65;13.23;;;4.20;99.90;;;;;;5013991;28;20041;-82
2022/01/17 09:22:43;;;;;;;20.38;14.68;;;4.30;99.90;;;;;;5012473;28;20064;-82
2022/01/17 09:25:10;;;;;;;20.95;12.90;;;4.30;99.90;;;;;;5013648;28;20427;-82
2022/01/17 09:27:36;;;;;;;16.13;14.23;;;4.30;99.90;;;;;;5014161;28;20048;-81
2022/01/17 09:30:09;;;;;;;18.45;12.40;;;4.30;99.90;;;;;;5013525;28;20037;-82
2022/01/17 09:32:36;;;;;;;14.10;12.63;;;4.40;99.90;;;;;;5014310;28;20042;-81
2022/01/17 09:35:04;;;;;;;16.77;12.50;;;4.40;99.90;;;;;;5013100;28;20037;-82
2022/01/17 09:37:31;;;;;;;16.40;12.23;;;4.40;99.90;;;;;;5012325;28;20483;-82
2022/01/17 09:39:57;;;;;;;14.88;13.00;;;4.40;99.90;;;;;;5014061;28;20030;-81
2022/01/17 09:42:24;;;;;;;20.30;12.93;;;4.50;99.90;;;;;;5013551;28;20033;-81
2022/01/17 09:44:50;;;;;;;14.70;12.65;;;4.60;99.90;;;;;;5014228;28;20045;-81
2022/01/17 09:47:17;;;;;;;15.63;13.40;;;4.60;99.90;;;;;;5011730;28;20054;-81
2022/01/17 09:49:54;;;;;;;18.27;13.43;;;4.60;99.90;;;;;;5014248;28;20037;-87
2022/01/17 09:52:36;;;;;;;12.55;11.30;;;4.70;99.90;;;;;;5013336;28;20052;-84
2022/01/17 09:55:02;;;;;;;17.90;11.25;;;4.90;99.90;;;;;;4997751;28;20034;-83
2022/01/17 09:57:31;;;;;;;17.25;10.80;;;4.90;99.90;;;;;;5005444;28;20472;-84
2022/01/17 09:59:57;;;;;;;12.77;10.55;;;5.00;99.90;;;;;;5001759;28;20049;-84
2022/01/17 10:02:23;;;;;;;16.10;10.60;;;5.00;99.90;;;;;;5015204;28;20041;-86
2022/01/17 10:04:51;;;;;;;15.88;10.55;;;5.10;99.90;;;;;;5024071;28;20057;-85
2022/01/17 10:07:17;;;;;;;14.18;9.15;;;5.10;99.20;;;;;;5031439;28;20034;-84
2022/01/17 10:09:54;;;;;;;11.95;9.90;;;5.20;99.00;;;;;;5028157;28;20038;-86
2022/01/17 10:12:21;;;;;;;10.38;9.00;;;5.20;98.40;;;;;;5033092;28;20040;-87
2022/01/17 10:15:03;;;;;;;13.48;10.18;;;5.20;98.60;;;;;;5035269;28;20018;-88
2022/01/17 10:17:47;;;;;;;13.13;9.35;;;5.10;98.50;;;;;;5032000;28;20368;-85
2022/01/17 10:20:17;;;;;;;10.38;8.20;;;5.10;98.10;;;;;;5014134;28;20037;-84
2022/01/17 10:23:04;;;;;;;12.47;8.97;;;5.10;98.40;;;;;;5006105;28;20030;-85
2022/01/17 10:31:20;;;;;;;12.60;9.45;;;5.10;98.50;;;;;;4997740;28;20484;-85
2022/01/17 10:36:49;;;;;;;12.23;9.93;;;5.10;98.30;;;;;;5005699;28;20054;-84
2022/01/17 10:39:16;;;;;;;12.82;10.25;;;5.10;98.10;;;;;;5003513;28;20041;-77
2022/01/17 10:41:42;;;;;;;17.17;11.13;;;5.10;97.90;;;;;;4993939;28;20514;-86
2022/01/17 10:44:08;;;;;;;18.65;10.23;;;5.10;98.10;;;;;;4993055;28;20046;-84
2022/01/17 10:46:35;;;;;;;11.95;9.93;;;5.10;98.00;;;;;;5008147;28;20037;-88
2022/01/17 10:49:03;;;;;;;16.50;11.40;;;5.10;97.80;;;;;;5013585;28;20368;-86
2022/01/17 10:51:32;;;;;;;10.50;9.48;;;5.10;98.00;;;;;;5013026;28;20034;-85
2022/01/17 10:54:11;;;;;;;13.45;10.57;;;5.20;98.40;;;;;;5013103;28;20034;-85
2022/01/17 10:56:53;;;;;;;14.55;9.48;;;5.20;98.30;;;;;;5016067;28;20041;-90
2022/01/17 10:59:36;;;;;;;11.80;10.15;;;5.30;98.00;;;;;;5014341;28;20030;-81
2022/01/17 11:02:04;;;;;;;15.45;12.65;;;5.30;98.30;;;;;;5012560;28;20033;-82
2022/01/17 11:04:35;;;;;;;14.35;11.73;;;5.30;98.40;;;;;;5012481;28;20486;-82
2022/01/17 11:07:07;;;;;;;14.82;10.88;;;5.30;98.20;;;;;;5012613;28;20123;-80
2022/01/17 11:09:41;;;;;;;16.05;12.73;;;5.30;97.90;;;;;;5015396;28;20360;-82
2022/01/17 11:12:12;;;;;;;17.48;13.45;;;5.40;98.10;;;;;;5016196;28;20049;-83
2022/01/17 11:14:39;;;;;;;13.85;12.63;;;5.40;98.20;;;;;;5015465;28;20038;-82
2022/01/17 11:17:24;;;;;;;17.42;14.02;;;5.50;98.00;;;;;;5016707;28;20042;-87
2022/01/17 11:20:05;;;;;;;16.58;13.95;;;5.40;97.70;;;;;;5016975;28;20038;-81
2022/01/17 11:22:37;;;;;;;17.98;14.50;;;5.40;97.50;;;;;;5016780;28;20030;-83
2022/01/17 11:25:06;;;;;;;27.85;14.80;;;5.40;97.70;;;;;;5016965;28;20479;-82
2022/01/17 11:27:33;;;;;;;21.27;14.70;;;5.30;97.80;;;;;;5016335;28;20042;-82
2022/01/17 11:30:00;;;;;;;19.63;14.93;;;5.30;98.00;;;;;;5017007;28;20037;-81
2022/01/17 11:32:26;;;;;;;17.25;13.27;;;5.30;98.30;;;;;;5016348;28;20025;-82
2022/01/17 11:34:54;;;;;;;15.18;12.90;;;5.30;98.10;;;;;;5016234;28;20029;-82
2022/01/17 11:37:21;;;;;;;15.73;14.00;;;5.30;97.90;;;;;;4998103;28;20045;-82
2022/01/17 11:39:50;;;;;;;20.05;14.38;;;5.40;98.30;;;;;;5016117;28;20026;-82
2022/01/17 11:42:40;;;;;;;20.40;13.48;;;5.40;97.90;;;;;;5015758;28;20034;-83
2022/01/17 11:45:22;;;;;;;20.30;13.07;;;5.40;97.60;;;;;;5005326;28;20054;-82
2022/01/17 11:47:51;;;;;;;;;;;5.30;98.10;;;;;;5016563;28;20053;-82
2022/01/17 11:50:43;;;;;;;20.75;13.10;;;5.40;97.90;;;;;;5019574;28;19909;-83
2022/01/17 11:53:12;;;;;;;16.38;12.18;;;5.40;97.90;;;;;;5014632;28;20046;-83
2022/01/17 11:55:46;;;;;;;15.68;11.93;;;5.40;98.10;;;;;;5017459;28;20030;-82
2022/01/17 11:58:31;;;;;;;19.35;14.18;;;5.40;98.10;;;;;;5014983;28;20053;-81
2022/01/17 12:01:01;;;;;;;13.75;12.07;;;5.50;97.80;;;;;;5016035;28;20042;-82
2022/01/17 12:03:50;;;;;;;12.13;10.93;;;5.60;97.60;;;;;;5020216;28;20034;-82
2022/01/17 12:06:19;;;;;;;13.88;11.25;;;5.60;97.20;;;;;;5015043;28;20468;-82
2022/01/17 12:08:46;;;;;;;18.27;16.05;;;5.50;97.30;;;;;;5016403;28;20068;-82
2022/01/17 12:11:30;;;;;;;20.20;12.77;;;5.50;97.30;;;;;;5015139;28;20025;-81
2022/01/17 12:14:17;;;;;;;14.02;12.48;;;5.50;97.50;;;;;;5015439;28;20078;-82
2022/01/17 12:16:43;;;;;;;20.92;12.80;;;5.50;97.40;;;;;;5015658;28;20042;-81
2022/01/17 12:19:10;;;;;;;22.25;12.98;;;5.60;97.50;;;;;;5015255;28;20386;-86
2022/01/17 12:21:47;;;;;;;17.00;12.10;;;5.50;97.40;;;;;;5014346;28;20041;-82
2022/01/17 12:24:22;;;;;;;24.02;17.92;;;5.50;97.30;;;;;;5015062;28;20065;-83
2022/01/17 12:26:54;;;;;;;16.13;12.70;;;5.50;97.20;;;;;;5015469;28;20486;-82
2022/01/17 12:29:40;;;;;;;18.60;15.25;;;5.50;97.40;;;;;;5014945;28;20025;-82
2022/01/17 12:32:22;;;;;;;19.10;13.80;;;5.70;97.10;;;;;;5015618;28;20049;-82
2022/01/17 12:34:49;;;;;;;29.13;17.00;;;5.90;96.70;;;;;;5015244;28;20486;-82
2022/01/17 12:37:39;;;;;;;22.77;16.92;;;6.00;96.30;;;;;;5014825;28;20101;-83
2022/01/17 12:40:30;;;;;;;29.45;20.58;;;6.10;95.50;;;;;;5015081;28;20038;-83
2022/01/17 12:43:13;;;;;;;17.25;15.57;;;6.10;95.20;;;;;;5015372;28;20041;-82
2022/01/17 12:45:44;;;;;;;13.82;12.10;;;6.10;95.20;;;;;;5014186;28;20041;-81
2022/01/17 12:48:13;;;;;;;21.23;14.32;;;6.00;94.80;;;;;;5014668;28;20044;-82
2022/01/17 12:50:42;;;;;;;92.47;62.35;;;5.90;95.80;;;;;;5015499;28;20034;-82
2022/01/17 12:53:10;;;;;;;24.88;17.90;;;5.90;95.60;;;;;;5015927;28;20041;-82
2022/01/17 12:55:45;;;;;;;15.38;13.77;;;6.20;95.30;;;;;;5015559;28;20033;-81
2022/01/17 12:58:16;;;;;;;20.45;17.08;;;6.50;94.50;;;;;;5024411;28;20033;-82
2022/01/17 13:00:44;;;;;;;18.00;15.88;;;6.60;93.70;;;;;;5027857;28;20458;-82
2022/01/17 13:03:13;;;;;;;22.30;18.05;;;6.70;93.40;;;;;;5026433;28;20026;-83